Main page
METAR-TAF:

METAR-TAF

Airports :

Vienna International Airport

Vienna, Austria

latitude: 48-07N, longitude: 016-34E, elevation: 183 m

Current weather observation

The report was made 38 minutes ago, at 09:20 UTC
Wind 10 kt from the Northwest
Temperature 10°C
Humidity 76%
Pressure 1012 hPa
Visibility 10 km or more
Few clouds at a height of 1400 ft
Broken clouds at a height of 2000 ft

METAR: LOWW 270920Z 31010KT 9999 FEW014 BKN020 10/06 Q1012 NOSIG

Time: 10:58 (09:58 UTC)

Forecast

The report was made 1 hour and 43 minutes ago, at 08:15 UTC
Forecast valid from 27 at 09 UTC to 28 at 15 UTC
Wind 10 kt from the West/Northwest
Visibility 10 km or more
Few clouds at a height of 1000 ft
Overcast at a height of 2000 ft
Temporary
from 27 at 09 UTC to 27 at 14 UTC
light rain
From 28 at 0000 UTC
Wind 2 kt from variable directions
Visibility 10 km or more
no clouds below 1500 m and no cumulonimbus

TAF: LOWW 270815Z 2709/2815 29010KT 9999 FEW010 OVC020 TX13/2814Z TN05/2806Z TEMPO 2709/2714 -RA FM280000 VRB02KT CAVOK

Weather observations and forecasts of more than 4000 airports (METAR and TAF reports).

The available stations are represented by yellow and red dots on the map.

Hover mouse over dot to see the name of the station.

Then click to see weather observations and forecasts.

To change the map : click on the green buttons with a black cross to zoom in, on the green button with a dash to zoom out, or on the green arrows for adjacent maps.


METAR-TAF: